createdAt,value
2018-06-25T00:00:16.994Z,2.27
2018-06-25T00:02:46.436Z,2.87
2018-06-25T00:05:15.909Z,3.90
2018-06-25T00:07:45.433Z,2.43
2018-06-25T00:10:15.005Z,2.70
2018-06-25T00:12:44.451Z,3.40
2018-06-25T00:15:14.080Z,2.27
2018-06-25T00:17:43.558Z,2.00
2018-06-25T00:20:13.231Z,2.40
2018-06-25T00:22:43.096Z,2.77
2018-06-25T00:25:12.470Z,2.97
2018-06-25T00:27:41.880Z,2.87
2018-06-25T00:30:11.501Z,4.07
2018-06-25T00:32:41.294Z,2.57
2018-06-25T00:35:10.995Z,3.70
2018-06-25T00:37:40.494Z,2.53
2018-06-25T00:40:09.908Z,3.40
2018-06-25T00:42:39.337Z,2.63
2018-06-25T00:45:08.944Z,3.00
2018-06-25T00:47:38.552Z,2.80
2018-06-25T00:50:08.168Z,2.87
2018-06-25T00:52:37.684Z,2.80
2018-06-25T00:55:07.173Z,2.70
2018-06-25T00:57:36.685Z,2.80
2018-06-25T01:00:06.288Z,3.17
2018-06-25T01:02:35.742Z,2.87
2018-06-25T01:05:05.583Z,3.37
2018-06-25T01:07:35.105Z,2.80
2018-06-25T01:10:05.120Z,3.20
2018-06-25T01:12:34.548Z,3.47
2018-06-25T01:15:05.161Z,3.50
2018-06-25T01:17:34.633Z,3.90
2018-06-25T01:20:04.635Z,2.60
2018-06-25T01:22:34.073Z,3.43
2018-06-25T01:25:03.610Z,2.63
2018-06-25T01:27:33.101Z,3.10
2018-06-25T01:30:02.528Z,3.90
2018-06-25T01:32:31.990Z,3.53
2018-06-25T01:35:01.431Z,3.10
2018-06-25T01:37:37.575Z,3.30
2018-06-25T01:40:07.066Z,3.50
2018-06-25T01:42:36.852Z,3.13
2018-06-25T01:45:06.396Z,2.90
2018-06-25T01:47:36.132Z,3.30
2018-06-25T01:50:05.867Z,3.97
2018-06-25T01:52:35.351Z,3.73
2018-06-25T01:55:04.830Z,4.00
2018-06-25T01:57:33.913Z,3.77
2018-06-25T02:00:03.494Z,3.60
2018-06-25T02:02:32.945Z,4.43
2018-06-25T02:05:03.147Z,4.10
2018-06-25T02:07:32.518Z,3.27
2018-06-25T02:10:01.982Z,4.20
2018-06-25T02:12:31.447Z,2.80
2018-06-25T02:15:01.065Z,3.30
2018-06-25T02:17:30.522Z,4.43
2018-06-25T02:20:00.050Z,3.77
2018-06-25T02:22:29.817Z,3.93
2018-06-25T02:24:59.320Z,3.03
2018-06-25T02:27:28.753Z,3.20
2018-06-25T02:29:58.601Z,4.53
2018-06-25T02:32:28.076Z,4.50
2018-06-25T02:34:57.626Z,4.70
2018-06-25T02:37:27.694Z,3.90
2018-06-25T02:39:57.188Z,3.87
2018-06-25T02:42:26.669Z,3.30
2018-06-25T02:44:56.181Z,3.70
2018-06-25T02:47:25.873Z,4.33
2018-06-25T02:49:55.356Z,3.50
2018-06-25T02:52:24.760Z,3.53
2018-06-25T02:54:54.216Z,3.20
2018-06-25T02:57:23.652Z,3.30
2018-06-25T02:59:53.110Z,3.53
2018-06-25T03:02:22.660Z,4.20
2018-06-25T03:04:52.244Z,4.60
2018-06-25T03:07:21.658Z,3.77
2018-06-25T03:09:51.273Z,3.30
2018-06-25T03:12:20.718Z,3.33
2018-06-25T03:15:53.260Z,4.10
2018-06-25T03:18:22.956Z,4.03
2018-06-25T03:20:52.596Z,3.83
2018-06-25T03:23:22.056Z,3.73
2018-06-25T03:25:52.659Z,3.50
2018-06-25T03:28:22.913Z,4.50
2018-06-25T03:30:52.670Z,3.10
2018-06-25T03:33:22.279Z,3.50
2018-06-25T03:35:52.039Z,4.47
2018-06-25T03:38:21.585Z,3.50
2018-06-25T03:40:52.287Z,3.37
2018-06-25T03:43:21.850Z,3.00
2018-06-25T03:45:51.282Z,3.83
2018-06-25T03:48:20.810Z,3.60
2018-06-25T03:50:50.256Z,4.50
2018-06-25T03:53:19.705Z,4.60
2018-06-25T03:55:49.329Z,3.80
2018-06-25T03:58:18.745Z,4.43
2018-06-25T04:00:48.282Z,5.43
2018-06-25T04:03:17.948Z,5.00
2018-06-25T04:05:47.437Z,5.47
2018-06-25T04:08:17.054Z,4.60
2018-06-25T04:10:57.738Z,11.33
2018-06-25T04:13:39.043Z,9.77
2018-06-25T04:16:09.477Z,13.40
2018-06-25T04:18:38.917Z,11.30
2018-06-25T04:21:08.392Z,11.30
2018-06-25T04:23:37.832Z,10.40
2018-06-25T04:26:07.310Z,9.70
2018-06-25T04:28:36.925Z,9.73
2018-06-25T04:31:06.497Z,8.20
2018-06-25T04:33:35.969Z,9.70
2018-06-25T04:36:06.572Z,8.53
2018-06-25T04:38:36.038Z,8.97
2018-06-25T04:41:05.489Z,7.20
2018-06-25T04:43:35.013Z,9.20
2018-06-25T04:46:04.728Z,7.70
2018-06-25T04:48:34.294Z,9.40
2018-06-25T04:51:03.788Z,7.57
2018-06-25T04:53:33.280Z,7.87
2018-06-25T04:56:02.712Z,8.17
2018-06-25T04:58:32.264Z,8.13
2018-06-25T05:01:01.715Z,8.10
2018-06-25T05:03:31.234Z,8.40
2018-06-25T05:06:01.556Z,8.53
2018-06-25T05:08:31.411Z,8.83
2018-06-25T05:11:00.852Z,7.67
2018-06-25T05:13:34.337Z,8.50
2018-06-25T05:16:04.027Z,7.60
2018-06-25T05:18:33.176Z,7.57
2018-06-25T05:21:03.755Z,7.47
2018-06-25T05:23:33.323Z,8.57
2018-06-25T05:26:03.240Z,8.23
2018-06-25T05:28:32.975Z,8.00
2018-06-25T05:31:02.952Z,6.97
2018-06-25T05:33:32.406Z,9.10
2018-06-25T05:36:02.196Z,7.40
2018-06-25T05:38:31.676Z,9.00
2018-06-25T05:41:01.177Z,8.60
2018-06-25T05:43:30.841Z,7.93
2018-06-25T05:46:00.651Z,7.73
2018-06-25T05:48:30.125Z,7.80
2018-06-25T05:50:59.755Z,9.33
2018-06-25T05:53:29.329Z,7.93
2018-06-25T05:55:58.829Z,7.43
2018-06-25T05:58:28.257Z,8.53
2018-06-25T06:00:57.352Z,7.97
2018-06-25T06:03:26.705Z,8.07
2018-06-25T06:05:56.159Z,8.67
2018-06-25T06:08:25.599Z,8.77
2018-06-25T06:10:55.472Z,7.77
2018-06-25T06:13:24.936Z,7.50
2018-06-25T06:15:55.183Z,7.90
2018-06-25T06:18:24.800Z,8.30
2018-06-25T06:20:54.284Z,7.93
2018-06-25T06:23:23.745Z,7.30
2018-06-25T06:25:53.306Z,7.80
2018-06-25T06:43:07.908Z,7.20
2018-06-25T06:45:52.521Z,8.10
2018-06-25T06:48:22.137Z,8.20
2018-06-25T06:50:51.717Z,8.13
2018-06-25T06:53:51.707Z,8.20
2018-06-25T06:56:21.485Z,7.43
2018-06-25T06:58:50.993Z,7.80
2018-06-25T07:01:20.677Z,8.43
2018-06-25T07:03:50.151Z,7.80
2018-06-25T07:06:19.972Z,8.57
2018-06-25T07:08:49.489Z,7.67
2018-06-25T07:11:18.960Z,7.80
2018-06-25T07:13:48.473Z,8.17
2018-06-25T07:16:17.951Z,7.20
2018-06-25T07:18:47.464Z,8.00
2018-06-25T07:21:17.052Z,8.43
2018-06-25T07:23:47.162Z,7.23
2018-06-25T07:26:21.834Z,8.20
2018-06-25T07:28:51.415Z,8.60
2018-06-25T07:31:24.972Z,8.13
2018-06-25T07:33:54.555Z,7.73
2018-06-25T07:36:24.043Z,6.53
2018-06-25T07:38:53.724Z,8.83
2018-06-25T07:41:23.834Z,7.53
2018-06-25T07:43:53.314Z,7.50
2018-06-25T07:46:22.784Z,8.10
2018-06-25T07:48:52.444Z,8.50
2018-06-25T07:51:21.953Z,7.87
2018-06-25T07:53:51.442Z,7.67
2018-06-25T07:56:20.946Z,8.30
2018-06-25T07:58:50.537Z,8.40
2018-06-25T08:01:20.096Z,7.97
2018-06-25T08:03:49.649Z,8.20
2018-06-25T08:06:19.231Z,8.43
2018-06-25T08:08:48.739Z,8.17
2018-06-25T08:11:18.216Z,8.00
2018-06-25T08:13:47.726Z,8.40
2018-06-25T08:16:17.432Z,8.07
2018-06-25T08:18:47.172Z,8.43
2018-06-25T08:21:16.739Z,6.90
2018-06-25T08:23:46.217Z,9.07
2018-06-25T08:26:15.724Z,8.10
2018-06-25T08:28:45.204Z,8.40
2018-06-25T08:31:14.781Z,8.40
2018-06-25T08:33:44.372Z,8.97
2018-06-25T08:36:13.923Z,8.50
2018-06-25T08:38:43.444Z,8.30
2018-06-25T08:41:12.909Z,7.57
2018-06-25T08:43:42.565Z,7.80
2018-06-25T08:46:12.822Z,9.77
2018-06-25T08:48:42.889Z,7.30
2018-06-25T08:51:12.491Z,9.27
2018-06-25T08:53:41.956Z,7.70
2018-06-25T08:56:12.110Z,8.77
2018-06-25T08:58:41.792Z,8.50
2018-06-25T09:01:11.334Z,7.80
2018-06-25T09:03:40.892Z,7.90
2018-06-25T09:06:10.462Z,7.27
2018-06-25T09:08:40.114Z,7.90
2018-06-25T09:11:10.486Z,7.23
2018-06-25T09:13:40.071Z,7.83
2018-06-25T09:16:09.611Z,8.63
2018-06-25T09:18:39.260Z,8.47
2018-06-25T09:21:09.038Z,8.90
2018-06-25T09:23:38.934Z,9.23
2018-06-25T09:26:08.591Z,7.83
2018-06-25T09:28:38.178Z,7.47
2018-06-25T09:31:07.927Z,9.10
2018-06-25T09:33:37.513Z,9.10
2018-06-25T09:36:07.511Z,8.53
2018-06-25T09:38:37.021Z,8.23
2018-06-25T09:41:06.754Z,8.03
2018-06-25T09:43:36.475Z,8.70
2018-06-25T09:46:06.449Z,7.17
2018-06-25T09:48:35.663Z,9.27
2018-06-25T09:51:04.657Z,7.57
2018-06-25T09:53:34.017Z,7.70
2018-06-25T09:56:03.754Z,6.70
2018-06-25T09:58:33.287Z,8.67
2018-06-25T10:01:08.145Z,8.00
2018-06-25T10:03:38.255Z,6.93
2018-06-25T10:06:07.963Z,6.67
2018-06-25T10:08:37.540Z,7.30
2018-06-25T10:11:07.467Z,7.23
2018-06-25T10:13:37.729Z,7.17
2018-06-25T10:16:07.253Z,7.27
2018-06-25T10:18:36.745Z,7.30
2018-06-25T10:21:06.585Z,8.13
2018-06-25T10:23:36.291Z,8.30
2018-06-25T10:26:05.817Z,8.60
2018-06-25T10:28:35.459Z,7.33
2018-06-25T10:31:05.031Z,6.97
2018-06-25T10:33:34.731Z,8.00
2018-06-25T10:36:04.479Z,6.80
2018-06-25T10:38:34.966Z,7.37
2018-06-25T10:41:04.778Z,7.23
2018-06-25T10:43:34.357Z,7.27
2018-06-25T10:46:03.918Z,7.80
2018-06-25T10:48:33.652Z,7.67
2018-06-25T10:51:03.398Z,7.00
2018-06-25T10:53:32.901Z,6.43
2018-06-25T10:56:02.532Z,7.03
2018-06-25T10:58:32.218Z,7.63
2018-06-25T11:01:01.828Z,7.57
2018-06-25T11:04:34.874Z,7.20
2018-06-25T11:07:04.549Z,7.00
2018-06-25T11:09:34.022Z,7.00
2018-06-25T11:12:04.601Z,5.97
2018-06-25T11:14:34.666Z,6.30
2018-06-25T11:17:04.114Z,6.90
2018-06-25T11:19:33.611Z,7.13
2018-06-25T11:22:03.120Z,6.33
2018-06-25T11:24:33.337Z,6.30
2018-06-25T11:27:03.039Z,6.50
2018-06-25T11:29:32.538Z,5.57
2018-06-25T11:32:01.997Z,5.37
2018-06-25T11:34:31.579Z,5.53
2018-06-25T11:37:01.492Z,4.90
2018-06-25T11:39:31.351Z,5.63
2018-06-25T11:42:00.853Z,5.90
2018-06-25T11:44:30.487Z,6.50
2018-06-25T11:47:00.038Z,5.93
2018-06-25T11:49:29.696Z,5.57
2018-06-25T11:51:59.322Z,5.17
2018-06-25T11:54:28.845Z,6.07
2018-06-25T11:56:58.914Z,6.17
2018-06-25T11:59:28.603Z,5.40
2018-06-25T12:01:58.328Z,5.07
2018-06-25T12:04:28.049Z,4.37
2018-06-25T12:06:57.209Z,4.77
2018-06-25T12:09:26.780Z,5.10
2018-06-25T12:11:56.251Z,5.93
2018-06-25T12:14:25.986Z,4.77
2018-06-25T12:16:55.527Z,5.23
2018-06-25T12:19:24.978Z,4.40
2018-06-25T12:21:54.484Z,5.63
2018-06-25T12:24:23.958Z,4.50
2018-06-25T12:26:53.616Z,4.77
2018-06-25T12:29:23.397Z,5.03
2018-06-25T12:31:53.165Z,3.93
2018-06-25T12:34:22.665Z,4.20
2018-06-25T12:36:52.173Z,4.00
2018-06-25T12:39:22.168Z,4.33
2018-06-25T12:41:52.381Z,4.47
2018-06-25T12:44:22.303Z,5.40
2018-06-25T12:46:51.916Z,4.83
2018-06-25T12:49:21.475Z,3.83
2018-06-25T12:51:51.284Z,3.90
2018-06-25T12:54:20.768Z,3.53
2018-06-25T12:56:50.313Z,4.40
2018-06-25T12:59:19.876Z,3.90
2018-06-25T13:01:49.450Z,4.07
2018-06-25T13:04:19.251Z,3.10
2018-06-25T13:06:49.501Z,3.90
2018-06-25T13:09:19.303Z,4.43
2018-06-25T13:11:48.999Z,4.40
2018-06-25T13:14:19.044Z,4.60
2018-06-25T13:16:49.371Z,4.40
2018-06-25T13:19:19.404Z,3.77
2018-06-25T13:21:50.321Z,3.93
2018-06-25T13:24:19.846Z,4.63
2018-06-25T13:26:49.467Z,4.20
2018-06-25T13:29:19.039Z,3.70
2018-06-25T13:31:48.543Z,3.93
2018-06-25T13:34:18.231Z,4.27
2018-06-25T13:36:48.875Z,4.50
2018-06-25T13:39:33.582Z,4.70
2018-06-25T13:42:04.161Z,4.80
2018-06-25T13:44:34.734Z,4.90
2018-06-25T13:47:04.676Z,3.57
2018-06-25T13:49:35.530Z,3.90
2018-06-25T13:52:05.249Z,4.20
2018-06-25T13:54:34.814Z,4.40
2018-06-25T13:57:05.724Z,3.83
2018-06-25T13:59:36.097Z,4.57
2018-06-25T14:02:06.474Z,5.20
2018-06-25T14:04:36.679Z,4.17
2018-06-25T14:07:07.075Z,3.57
2018-06-25T14:09:37.878Z,3.33
2018-06-25T14:12:08.653Z,5.30
2018-06-25T14:14:38.274Z,5.00
2018-06-25T14:20:40.304Z,5.60
2018-06-25T14:23:09.861Z,4.00
2018-06-25T14:25:46.293Z,4.50
2018-06-25T14:28:22.233Z,4.23
2018-06-25T14:30:56.889Z,4.70
2018-06-25T14:33:32.386Z,4.97
2018-06-25T14:36:02.861Z,5.53
2018-06-25T14:38:33.239Z,4.83
2018-06-25T14:41:03.328Z,4.17
2018-06-25T14:43:34.244Z,4.53
2018-06-25T14:46:04.805Z,5.27
2018-06-25T14:48:36.054Z,5.60
2018-06-25T14:51:06.588Z,4.37
2018-06-25T14:53:37.484Z,4.60
2018-06-25T14:56:07.200Z,4.93
2018-06-25T14:58:36.760Z,4.80
2018-06-25T15:01:06.548Z,5.23
2018-06-25T15:03:37.404Z,5.77
2018-06-25T15:06:08.114Z,5.40
2018-06-25T15:08:37.735Z,4.43
2018-06-25T15:11:14.387Z,5.30
2018-06-25T15:13:45.484Z,5.07
2018-06-25T15:16:15.988Z,4.40
2018-06-25T15:18:46.375Z,5.60
2018-06-25T15:21:19.002Z,4.67
2018-06-25T15:23:49.300Z,4.93
2018-06-25T15:26:20.675Z,4.70
2018-06-25T15:28:51.838Z,4.23
2018-06-25T15:31:22.656Z,4.87
2018-06-25T15:33:52.334Z,6.33
2018-06-25T15:36:22.017Z,4.00
2018-06-25T15:38:57.361Z,5.43
2018-06-25T15:41:27.156Z,4.83
2018-06-25T15:43:57.204Z,6.33
2018-06-25T15:46:27.526Z,4.60
2018-06-25T15:48:57.849Z,5.13
2018-06-25T15:51:27.784Z,4.50
2018-06-25T15:53:57.868Z,4.40
2018-06-25T15:56:27.721Z,4.27
2018-06-25T15:58:58.552Z,5.27
2018-06-25T16:01:28.671Z,4.43
2018-06-25T16:03:59.699Z,4.70
2018-06-25T16:06:30.248Z,4.47
2018-06-25T16:09:00.241Z,4.90
2018-06-25T16:11:31.164Z,5.43
2018-06-25T16:14:02.557Z,4.80
2018-06-25T16:16:32.968Z,4.80
2018-06-25T16:19:03.104Z,4.23
2018-06-25T16:21:33.460Z,5.30
2018-06-25T16:24:03.216Z,5.80
2018-06-25T16:26:32.953Z,5.73
2018-06-25T16:29:05.049Z,4.10
2018-06-25T16:31:35.347Z,4.57
2018-06-25T16:34:05.810Z,4.90
2018-06-25T16:36:35.771Z,4.33
2018-06-25T16:39:08.877Z,4.60
2018-06-25T16:41:41.938Z,4.13
2018-06-25T16:44:12.445Z,4.30
2018-06-25T16:46:42.973Z,6.00
2018-06-25T16:49:13.476Z,4.33
2018-06-25T16:51:43.070Z,6.20
2018-06-25T16:54:13.868Z,5.93
2018-06-25T16:56:43.872Z,5.00
2018-06-25T16:59:14.022Z,4.27
2018-06-25T17:01:44.335Z,4.73
2018-06-25T17:04:15.519Z,3.70
2018-06-25T17:06:44.911Z,4.20
2018-06-25T17:09:15.826Z,5.53
2018-06-25T17:11:46.252Z,4.40
2018-06-25T17:14:16.965Z,3.80
2018-06-25T17:16:48.420Z,4.30
2018-06-25T17:19:18.604Z,4.17
2018-06-25T17:21:48.601Z,5.07
2018-06-25T17:24:18.952Z,3.90
2018-06-25T17:26:50.804Z,4.47
2018-06-25T17:29:21.320Z,4.60
2018-06-25T17:31:52.728Z,5.93
2018-06-25T17:34:22.656Z,5.33
2018-06-25T17:36:52.622Z,4.10
2018-06-25T17:39:22.515Z,4.63
2018-06-25T17:41:54.455Z,3.70
2018-06-25T17:44:26.321Z,4.50
2018-06-25T17:46:57.225Z,4.80
2018-06-25T17:49:27.267Z,4.47
2018-06-25T17:51:58.004Z,5.63
2018-06-25T17:54:27.753Z,4.80
2018-06-25T17:56:58.632Z,4.90
2018-06-25T17:59:30.080Z,4.10
2018-06-25T18:02:00.628Z,4.53
2018-06-25T18:04:30.321Z,4.33
2018-06-25T18:07:00.438Z,4.50
2018-06-25T18:09:30.341Z,3.90
2018-06-25T18:12:00.078Z,4.90
2018-06-25T18:14:30.317Z,4.73
2018-06-25T18:17:01.240Z,3.93
2018-06-25T18:19:32.124Z,4.43
2018-06-25T18:22:02.080Z,4.90
2018-06-25T18:24:36.419Z,4.20
2018-06-25T18:27:07.687Z,5.10
2018-06-25T18:29:37.440Z,4.27
2018-06-25T18:32:07.190Z,3.90
2018-06-25T18:34:37.353Z,4.50
2018-06-25T18:37:12.675Z,7.57
2018-06-25T18:39:43.252Z,5.10
2018-06-25T18:42:14.088Z,5.20
2018-06-25T18:44:44.409Z,4.50
2018-06-25T18:47:15.717Z,4.73
2018-06-25T18:49:46.441Z,5.07
2018-06-25T18:52:16.904Z,4.90
2018-06-25T18:54:46.997Z,4.03
2018-06-25T18:57:18.734Z,4.10
2018-06-25T18:59:51.388Z,3.97
2018-06-25T19:02:22.597Z,4.53
2018-06-25T19:04:53.252Z,4.60
2018-06-25T19:07:22.992Z,5.80
2018-06-25T19:09:58.591Z,4.80
2018-06-25T19:12:30.051Z,5.30
2018-06-25T19:15:00.267Z,4.30
2018-06-25T19:17:31.054Z,4.27
2018-06-25T19:20:02.948Z,4.00
2018-06-25T19:22:33.718Z,4.00
2018-06-25T19:25:03.318Z,3.50
2018-06-25T19:27:36.169Z,4.27
2018-06-25T19:30:07.128Z,3.90
2018-06-25T19:32:37.278Z,3.80
2018-06-25T19:35:10.700Z,3.77
2018-06-25T19:37:41.835Z,3.70
2018-06-25T19:40:12.749Z,4.10
2018-06-25T19:42:42.548Z,4.67
2018-06-25T19:45:15.853Z,3.60
2018-06-25T19:47:45.642Z,4.60
2018-06-25T19:50:16.476Z,3.00
2018-06-25T19:52:46.297Z,4.10
2018-06-25T19:55:18.879Z,4.20
2018-06-25T19:57:50.342Z,3.43
2018-06-25T20:00:20.240Z,3.67
2018-06-25T20:02:50.142Z,3.27
2018-06-25T20:05:20.544Z,3.20
2018-06-25T20:07:50.891Z,3.90
2018-06-25T20:10:26.482Z,4.60
2018-06-25T20:12:56.409Z,3.47
2018-06-25T20:15:27.093Z,4.60
2018-06-25T20:17:57.893Z,3.00
2018-06-25T20:20:29.187Z,3.47
2018-06-25T20:22:59.767Z,3.10
2018-06-25T20:25:29.410Z,3.23
2018-06-25T20:27:59.230Z,3.97
2018-06-25T20:30:30.127Z,4.00
2018-06-25T20:33:01.370Z,4.50
2018-06-25T20:35:31.360Z,3.30
2018-06-25T20:38:01.307Z,3.97
2018-06-25T20:40:31.289Z,4.27
2018-06-25T20:43:01.083Z,5.13
2018-06-25T20:45:30.770Z,4.03
2018-06-25T20:48:00.443Z,4.40
2018-06-25T20:50:30.384Z,4.30
2018-06-25T20:53:00.801Z,3.60
2018-06-25T20:55:30.935Z,3.40
2018-06-25T20:58:00.886Z,4.30
2018-06-25T21:00:31.707Z,3.30
2018-06-25T21:03:01.391Z,3.73
2018-06-25T21:05:31.211Z,4.50
2018-06-25T21:08:02.580Z,4.30
2018-06-25T21:10:32.121Z,4.17
2018-06-25T21:13:02.468Z,3.83
2018-06-25T21:15:32.962Z,5.17
2018-06-25T21:18:02.635Z,4.17
2018-06-25T21:20:32.456Z,4.00
2018-06-25T21:23:02.139Z,3.60
2018-06-25T21:25:31.975Z,3.90
2018-06-25T21:28:02.186Z,5.00
2018-06-25T21:30:31.875Z,5.13
2018-06-25T21:33:01.487Z,4.87
2018-06-25T21:35:31.936Z,4.17
2018-06-25T21:38:01.707Z,3.30
2018-06-25T21:40:31.551Z,4.37
2018-06-25T21:43:01.408Z,4.23
2018-06-25T21:45:31.160Z,4.13
2018-06-25T21:48:00.716Z,3.70
2018-06-25T21:50:30.284Z,4.43
2018-06-25T21:53:00.341Z,3.97
2018-06-25T21:55:29.923Z,4.30
2018-06-25T21:57:59.816Z,3.50
2018-06-25T22:01:02.390Z,4.00
2018-06-25T22:03:32.077Z,4.60
2018-06-25T22:06:01.718Z,4.97
2018-06-25T22:08:31.844Z,4.43
2018-06-25T22:11:01.783Z,4.30
2018-06-25T22:13:33.027Z,4.73
2018-06-25T22:16:02.712Z,3.90
2018-06-25T22:18:32.540Z,3.70
2018-06-25T22:21:02.126Z,4.53
2018-06-25T22:23:31.710Z,4.40
2018-06-25T22:26:01.322Z,3.97
2018-06-25T22:28:30.889Z,4.20
2018-06-25T22:31:00.562Z,4.20
2018-06-25T22:33:30.154Z,4.20
2018-06-25T22:35:59.747Z,5.20
2018-06-25T22:38:29.435Z,4.50
2018-06-25T22:40:59.146Z,4.33
2018-06-25T22:43:29.402Z,4.40
2018-06-25T22:45:59.277Z,4.10
2018-06-25T22:48:28.751Z,6.20
2018-06-25T22:50:58.306Z,4.07
2018-06-25T22:53:28.126Z,4.63
2018-06-25T22:55:57.599Z,4.73
2018-06-25T22:58:27.052Z,4.73
2018-06-25T23:00:56.711Z,4.40
2018-06-25T23:03:27.165Z,5.20
2018-06-25T23:05:56.869Z,5.10
2018-06-25T23:08:26.358Z,4.37
2018-06-25T23:10:56.261Z,4.37
2018-06-25T23:13:25.820Z,4.83
2018-06-25T23:15:55.452Z,4.10
2018-06-25T23:18:24.944Z,4.20
2018-06-25T23:20:55.169Z,5.13
2018-06-25T23:23:24.662Z,5.27
2018-06-25T23:25:55.656Z,5.17
2018-06-25T23:28:25.448Z,5.73
2018-06-25T23:30:55.122Z,6.40
2018-06-25T23:33:24.763Z,4.57
2018-06-25T23:35:54.207Z,4.70
2018-06-25T23:38:23.730Z,4.90
2018-06-25T23:40:53.601Z,4.70
2018-06-25T23:43:23.305Z,5.73
2018-06-25T23:45:52.783Z,4.83
2018-06-25T23:48:22.274Z,4.40
2018-06-25T23:50:52.082Z,5.33
2018-06-25T23:53:21.495Z,4.93
2018-06-25T23:55:51.172Z,4.97
2018-06-25T23:58:20.796Z,5.53
